createdAt,value
2018-12-11T00:00:02.713Z,30.8
2018-12-11T00:00:52.225Z,30.8
2018-12-11T00:01:43.090Z,30.6
2018-12-11T00:02:32.434Z,29.8
2018-12-11T00:03:24.877Z,29.3
2018-12-11T00:04:13.601Z,28.9
2018-12-11T00:05:03.394Z,28.6
2018-12-11T00:05:53.171Z,28.4
2018-12-11T00:06:43.734Z,28.3
2018-12-11T00:25:14.232Z,31
2018-12-11T00:25:49.371Z,31.6
2018-12-11T00:26:53.845Z,31.8
2018-12-11T00:27:58.703Z,32.1
2018-12-11T00:28:25.450Z,32.6
2018-12-11T00:29:14.910Z,32.6
2018-12-11T00:30:06.578Z,32.9
2018-12-11T00:31:10.200Z,32
2018-12-11T04:54:13.428Z,31.4
2018-12-11T04:55:01.711Z,30.2
2018-12-11T04:55:51.503Z,28.9
2018-12-11T04:56:41.218Z,27.7
2018-12-11T04:57:32.142Z,26.3
2018-12-11T04:58:21.893Z,25.2
2018-12-11T04:59:11.700Z,25.1
2018-12-11T05:00:01.748Z,25.3
2018-12-11T05:00:52.035Z,26.4
2018-12-11T05:01:41.833Z,27.4
2018-12-11T05:02:31.052Z,28.3
2018-12-11T05:03:21.972Z,29
2018-12-11T05:04:12.067Z,29.8
2018-12-11T05:05:01.520Z,30.3
2018-12-11T05:05:51.847Z,30.6
2018-12-11T05:06:41.673Z,30.9
2018-12-11T05:07:31.279Z,31.2
2018-12-11T05:08:22.622Z,31.4
2018-12-11T05:09:12.052Z,31.7
2018-12-11T05:10:02.384Z,31.9
2018-12-11T05:10:52.764Z,32.1
2018-12-11T05:11:43.057Z,32.3
2018-12-11T05:12:32.287Z,32.4
2018-12-11T05:13:22.644Z,32.6
2018-12-11T05:14:12.737Z,32.6
2018-12-11T05:15:02.350Z,31.7
2018-12-11T05:15:52.806Z,31.4
2018-12-11T05:16:42.917Z,31.3
2018-12-11T05:17:31.378Z,31.1
2018-12-11T05:18:24.819Z,30.9
2018-12-11T05:19:12.249Z,30.8
2018-12-11T05:20:02.419Z,30.8
2018-12-11T05:20:52.941Z,30.7
2018-12-11T05:21:43.276Z,30.6
2018-12-11T05:22:32.289Z,30.5
2018-12-11T05:23:23.111Z,30.4
2018-12-11T05:24:12.711Z,30.1
2018-12-11T05:25:02.716Z,29.4
2018-12-11T05:25:52.710Z,28.9
2018-12-11T05:26:43.138Z,28.5
2018-12-11T05:27:33.154Z,28.3
2018-12-11T05:28:23.182Z,28.1
2018-12-11T05:29:15.850Z,27.7
2018-12-11T05:30:03.699Z,27.9
2018-12-11T05:30:54.861Z,28.6
2018-12-11T05:31:43.348Z,29.3
2018-12-11T05:32:33.478Z,29.9
2018-12-11T05:33:23.525Z,30.5
2018-12-11T05:34:16.353Z,30.8
2018-12-11T05:35:04.610Z,31.1
2018-12-11T05:35:52.873Z,31.3
2018-12-11T05:36:44.042Z,31.4
2018-12-11T05:37:34.566Z,31.7
2018-12-11T05:38:23.788Z,31.9
2018-12-11T05:39:16.253Z,32.1
2018-12-11T05:40:03.903Z,32.3
2018-12-11T05:40:54.523Z,32.4
2018-12-11T05:41:44.840Z,32.6
2018-12-11T05:42:33.857Z,32.7
2018-12-11T05:43:24.440Z,32.9
2018-12-11T05:44:14.758Z,32.8
2018-12-11T05:45:05.689Z,31.9
2018-12-11T05:45:55.132Z,31.6
2018-12-11T05:46:44.487Z,31.4
2018-12-11T05:47:34.950Z,31.3
2018-12-11T05:48:25.604Z,31.1
2018-12-11T05:49:15.382Z,31
2018-12-11T05:50:04.904Z,30.9
2018-12-11T05:50:54.926Z,30.8
2018-12-11T05:51:45.597Z,30.7
2018-12-11T05:52:35.632Z,30.6
2018-12-11T05:53:25.929Z,30.5
2018-12-11T05:54:15.486Z,30.3
2018-12-11T05:55:04.511Z,29.4
2018-12-11T05:55:55.001Z,28.9
2018-12-11T05:56:45.682Z,28.5
2018-12-11T05:57:35.518Z,28.3
2018-12-11T05:58:25.996Z,28.1
2018-12-11T05:59:15.225Z,27.8
2018-12-11T06:00:06.323Z,27.6
2018-12-11T06:00:55.921Z,28.4
2018-12-11T06:01:45.928Z,29.1
2018-12-11T06:02:36.566Z,29.7
2018-12-11T06:03:26.338Z,30.4
2018-12-11T06:04:16.443Z,30.7
2018-12-11T06:05:06.188Z,30.9
2018-12-11T06:05:57.041Z,31.2
2018-12-11T06:06:46.996Z,31.4
2018-12-11T06:07:35.478Z,31.6
2018-12-11T06:08:25.910Z,31.8
2018-12-11T06:09:15.690Z,32
2018-12-11T06:10:06.360Z,32.1
2018-12-11T06:10:56.968Z,32.4
2018-12-11T06:11:46.207Z,32.5
2018-12-11T06:12:34.915Z,32.6
2018-12-11T06:13:26.125Z,32.8
2018-12-11T06:14:16.651Z,32.9
2018-12-11T06:15:06.647Z,32.8
2018-12-11T06:15:56.707Z,31.9
2018-12-11T06:16:45.955Z,31.7
2018-12-11T06:17:37.027Z,31.5
2018-12-11T06:18:27.072Z,31.3
2018-12-11T06:19:17.133Z,31.1
2018-12-11T06:20:07.472Z,31
2018-12-11T06:20:57.032Z,30.9
2018-12-11T06:21:48.112Z,30.8
2018-12-11T06:22:37.401Z,30.7
2018-12-11T06:23:27.439Z,30.6
2018-12-11T06:24:17.764Z,30.4
2018-12-11T06:25:09.109Z,29.6
2018-12-11T06:25:58.171Z,29.1
2018-12-11T06:26:48.211Z,28.7
2018-12-11T06:27:38.041Z,28.4
2018-12-11T06:28:28.434Z,28.2
2018-12-11T06:29:17.313Z,28.1
2018-12-11T06:30:07.705Z,27.6
2018-12-11T06:30:57.702Z,28
2018-12-11T06:31:48.185Z,28.8
2018-12-11T06:32:38.063Z,29.3
2018-12-11T06:33:27.858Z,29.9
2018-12-11T06:34:18.430Z,30.5
2018-12-11T06:35:07.743Z,30.8
2018-12-11T06:35:58.235Z,31
2018-12-11T06:36:48.270Z,31.3
2018-12-11T06:37:38.938Z,31.4
2018-12-11T06:38:28.203Z,31.7
2018-12-11T06:39:18.485Z,31.9
2018-12-11T06:40:08.612Z,32.1
2018-12-11T06:40:58.633Z,32.3
2018-12-11T06:41:49.282Z,32.4
2018-12-11T06:42:39.003Z,32.6
2018-12-11T06:43:28.512Z,32.7
2018-12-11T06:44:18.634Z,32.9
2018-12-11T06:45:08.395Z,33
2018-12-11T06:45:58.949Z,32.1
2018-12-11T06:46:49.132Z,31.7
2018-12-11T06:47:39.852Z,31.5
2018-12-11T06:48:29.402Z,31.4
2018-12-11T06:49:18.889Z,31.3
2018-12-11T06:50:08.676Z,31.1
2018-12-11T06:50:58.442Z,30.9
2018-12-11T06:51:49.395Z,30.8
2018-12-11T06:52:39.914Z,30.7
2018-12-11T06:53:29.452Z,30.6
2018-12-11T06:54:19.552Z,30.5
2018-12-11T06:55:09.566Z,30.4
2018-12-11T06:55:59.358Z,29.9
2018-12-11T06:56:50.306Z,29.2
2018-12-11T06:57:39.593Z,28.8
2018-12-11T06:58:30.154Z,28.4
2018-12-11T06:59:19.379Z,28.3
2018-12-11T07:00:10.261Z,28.1
2018-12-11T07:01:00.396Z,27.9
2018-12-11T07:01:50.387Z,27.9
2018-12-11T07:02:40.728Z,27.8
2018-12-11T07:03:30.019Z,27.7
2018-12-11T07:04:20.756Z,27.6
2018-12-11T07:05:10.566Z,27.6
2018-12-11T07:06:01.006Z,27.4
2018-12-11T07:06:51.045Z,26.8
2018-12-11T07:07:40.206Z,26.3
2018-12-11T07:08:30.281Z,26.1
2018-12-11T07:09:20.310Z,25.9
2018-12-11T07:10:10.955Z,25.8
2018-12-11T07:11:01.220Z,25.7
2018-12-11T07:11:50.584Z,25.6
2018-12-11T07:12:41.078Z,25.5
2018-12-11T07:13:31.410Z,25.4
2018-12-11T07:14:20.457Z,25.4
2018-12-11T07:15:09.832Z,25.4
2018-12-11T07:16:00.159Z,25.3
2018-12-11T07:16:51.008Z,25
2018-12-11T07:17:41.127Z,25.7
2018-12-11T07:18:34.327Z,26.6
2018-12-11T07:19:20.919Z,27.3
2018-12-11T07:20:09.992Z,28.1
2018-12-11T07:21:00.609Z,28.8
2018-12-11T07:21:51.392Z,29.4
2018-12-11T07:22:41.434Z,29.8
2018-12-11T07:23:30.729Z,30.1
2018-12-11T07:24:21.382Z,29.3
2018-12-11T07:25:11.091Z,28.4
2018-12-11T07:26:01.734Z,27.2
2018-12-11T07:26:51.761Z,25.8
2018-12-11T07:27:41.070Z,24.7
2018-12-11T07:28:31.823Z,24
2018-12-11T07:29:22.174Z,23.9
2018-12-11T07:30:11.431Z,24.7
2018-12-11T07:31:01.850Z,25.8
2018-12-11T07:31:51.883Z,26.7
2018-12-11T07:32:42.009Z,27.6
2018-12-11T07:33:31.416Z,28.4
2018-12-11T07:34:19.893Z,29.2
2018-12-11T07:35:11.876Z,29.8
2018-12-11T07:36:01.695Z,30.2
2018-12-11T07:36:51.941Z,30.5
2018-12-11T07:37:41.733Z,30.8
2018-12-11T07:38:31.785Z,31.1
2018-12-11T07:39:22.856Z,31.3
2018-12-11T07:40:12.673Z,31.6
2018-12-11T07:41:01.677Z,31.8
2018-12-11T07:41:52.513Z,32
2018-12-11T07:42:42.824Z,32.3
2018-12-11T07:43:33.460Z,32.4
2018-12-11T07:44:22.842Z,32.6
2018-12-11T07:45:13.527Z,32.8
2018-12-11T07:46:03.659Z,32.9
2018-12-11T07:46:52.887Z,33.1
2018-12-11T07:47:43.457Z,33.1
2018-12-11T07:48:33.569Z,32.1
2018-12-11T07:49:23.259Z,31.9
2018-12-11T07:50:12.230Z,31.6
2018-12-11T07:51:02.555Z,31.5
2018-12-11T07:51:53.464Z,31.4
2018-12-11T07:52:43.816Z,31.1
2018-12-11T07:53:33.621Z,31
2018-12-11T07:54:23.399Z,30.9
2018-12-11T07:55:13.552Z,30.8
2018-12-11T07:56:07.137Z,30.7
2018-12-11T07:56:53.596Z,30.6
2018-12-11T07:57:43.601Z,30.6
2018-12-11T07:58:33.616Z,29.8
2018-12-11T07:59:24.273Z,29.1
2018-12-11T08:00:14.111Z,28.7
2018-12-11T08:01:04.376Z,28.4
2018-12-11T08:01:53.867Z,28.2
2018-12-11T08:02:44.201Z,28.1
2018-12-11T08:03:34.278Z,27.9
2018-12-11T08:04:23.826Z,27.8
2018-12-11T08:05:13.680Z,27.7
2018-12-11T08:06:04.155Z,27.6
2018-12-11T08:06:54.793Z,27.6
2018-12-11T08:07:43.730Z,27.6
2018-12-11T08:08:35.203Z,27.2
2018-12-11T08:09:23.908Z,26.5
2018-12-11T08:10:15.009Z,26.2
2018-12-11T08:11:04.828Z,25.9
2018-12-11T08:11:54.573Z,25.8
2018-12-11T08:12:44.343Z,25.6
2018-12-11T08:13:34.532Z,25.5
2018-12-11T08:14:25.085Z,25.4
2018-12-11T08:15:16.888Z,25.4
2018-12-11T08:16:04.927Z,25.3
2018-12-11T08:16:54.690Z,25.3
2018-12-11T08:17:44.767Z,25.2
2018-12-11T08:18:34.859Z,24.9
2018-12-11T08:19:25.894Z,25.8
2018-12-11T08:20:14.867Z,26.8
2018-12-11T08:21:05.875Z,27.4
2018-12-11T08:21:55.823Z,28.3
2018-12-11T08:22:45.317Z,29.1
2018-12-11T08:23:35.934Z,29.8
2018-12-11T08:24:25.399Z,30.2
2018-12-11T08:25:16.093Z,30.4
2018-12-11T08:26:05.067Z,30.7
2018-12-11T08:26:55.421Z,30.9
2018-12-11T08:27:45.722Z,31.2
2018-12-11T08:28:36.074Z,31.4
2018-12-11T08:29:25.484Z,31.6
2018-12-11T08:30:16.074Z,31.9
2018-12-11T08:31:06.426Z,32.1
2018-12-11T08:31:55.661Z,32.3
2018-12-11T08:32:46.831Z,32.4
2018-12-11T08:33:36.946Z,32.6
2018-12-11T08:34:25.943Z,32.7
2018-12-11T08:35:17.264Z,32.9
2018-12-11T08:36:07.311Z,33
2018-12-11T08:36:56.891Z,33.1
2018-12-11T08:37:45.496Z,32.4
2018-12-11T08:38:36.474Z,31.8
2018-12-11T08:39:27.873Z,31.6
2018-12-11T08:40:16.517Z,31.5
2018-12-11T08:41:07.708Z,31.4
2018-12-11T08:41:57.228Z,31.2
2018-12-11T08:42:47.316Z,31
2018-12-11T08:43:37.088Z,30.9
2018-12-11T08:44:26.806Z,30.8
2018-12-11T08:45:17.413Z,30.8
2018-12-11T08:46:07.258Z,30.6
2018-12-11T08:46:57.273Z,30.3
2018-12-11T08:47:47.586Z,29.6
2018-12-11T08:48:37.357Z,29
2018-12-11T08:49:27.174Z,28.6
2018-12-11T08:50:17.053Z,28.4
2018-12-11T08:51:07.809Z,28.2
2018-12-11T08:51:58.036Z,28.1
2018-12-11T08:52:47.185Z,27.9
2018-12-11T09:08:36.798Z,25.3
2018-12-11T09:09:56.380Z,26.6
2018-12-11T09:11:07.141Z,28.1
2018-12-11T09:11:57.552Z,28.9
2018-12-11T09:13:16.000Z,29.6
2018-12-11T09:13:52.657Z,30.2
2018-12-11T09:14:27.086Z,30.4
2018-12-11T09:15:17.569Z,30.6
2018-12-11T09:16:06.696Z,30.9
2018-12-11T09:17:11.229Z,31.1
2018-12-11T09:18:17.137Z,31.4
2018-12-11T09:18:38.584Z,31.8
2018-12-11T09:19:41.479Z,31.9
2018-12-11T09:20:32.093Z,32.1
2018-12-11T09:21:07.404Z,32.3
2018-12-11T09:21:58.052Z,32.4
2018-12-11T09:23:02.094Z,32.6
2018-12-11T09:23:51.917Z,32.8
2018-12-11T09:24:28.054Z,32.9
2018-12-11T09:26:22.550Z,33.3
2018-12-11T09:26:58.014Z,32.6
2018-12-11T09:27:47.898Z,32.1
2018-12-11T14:07:29.622Z,22.1
2018-12-11T14:08:19.589Z,22.1
2018-12-11T14:09:08.704Z,22.1
2018-12-11T14:09:59.128Z,22.1
2018-12-11T14:10:48.872Z,22.1
2018-12-11T14:11:38.869Z,22
2018-12-11T14:12:29.722Z,22
2018-12-11T14:13:19.524Z,22
2018-12-11T14:14:09.859Z,21.9
2018-12-11T14:14:59.321Z,21.9
2018-12-11T14:15:49.408Z,21.9
2018-12-11T14:16:39.474Z,21.9
2018-12-11T14:17:30.174Z,21.9
2018-12-11T14:18:20.213Z,21.9
2018-12-11T14:19:10.458Z,21.8
2018-12-11T14:19:59.719Z,21.8
2018-12-11T14:20:50.023Z,21.8
2018-12-11T14:21:39.548Z,21.8
2018-12-11T14:22:30.481Z,21.8
2018-12-11T14:23:20.498Z,21.8
2018-12-11T14:24:10.266Z,21.8
2018-12-11T14:25:00.382Z,21.8
2018-12-11T14:25:49.943Z,21.7
2018-12-11T14:26:40.498Z,21.7
2018-12-11T14:27:28.481Z,21.7
2018-12-11T14:28:20.161Z,21.7
2018-12-11T14:29:10.355Z,21.6
2018-12-11T14:29:59.568Z,21.6
2018-12-11T14:30:49.327Z,21.6
2018-12-11T14:31:39.485Z,21.6
2018-12-11T14:32:30.095Z,21.6
2018-12-11T14:33:20.747Z,21.6
2018-12-11T14:34:10.322Z,21.6
2018-12-11T14:35:00.050Z,21.6
2018-12-11T14:35:49.865Z,21.6
2018-12-11T14:36:40.110Z,21.5
2018-12-11T14:37:31.147Z,21.5
2018-12-11T14:38:20.217Z,21.5
2018-12-11T14:39:10.902Z,21.5
2018-12-11T14:40:00.881Z,21.4
2018-12-11T14:40:50.957Z,21.4
2018-12-11T14:41:41.092Z,21.4
2018-12-11T14:42:31.557Z,21.4
2018-12-11T14:43:21.200Z,21.4
2018-12-11T14:44:11.242Z,21.4
2018-12-11T14:45:01.737Z,21.4
2018-12-11T14:45:51.467Z,21.3
2018-12-11T14:46:40.829Z,21.3
2018-12-11T14:47:31.151Z,21.3
2018-12-11T14:48:22.763Z,21.3
2018-12-11T14:49:11.739Z,21.3
2018-12-11T14:50:02.092Z,21.3
2018-12-11T14:50:52.478Z,21.3
2018-12-11T14:51:41.676Z,21.2
2018-12-11T14:52:32.316Z,21.2
2018-12-11T14:53:21.649Z,21.2
2018-12-11T14:54:13.002Z,21.2
2018-12-11T14:55:02.439Z,21.2
2018-12-11T14:59:11.911Z,21.1
2018-12-11T15:00:03.078Z,21.1
2018-12-11T15:00:52.852Z,21.1
2018-12-11T15:01:43.463Z,21.1
2018-12-11T15:02:34.910Z,21.1
2018-12-11T15:03:23.013Z,21.1
2018-12-11T15:04:12.771Z,21.1
2018-12-11T15:05:02.068Z,21.1
2018-12-11T15:05:53.756Z,21.1
2018-12-11T15:06:43.506Z,21
2018-12-11T15:07:32.735Z,21
2018-12-11T15:08:23.325Z,21
2018-12-11T15:09:13.136Z,21
2018-12-11T15:10:03.526Z,21
2018-12-11T15:10:53.811Z,21
2018-12-11T15:11:43.594Z,20.9
2018-12-11T15:12:33.720Z,20.9
2018-12-11T15:13:23.485Z,20.9
2018-12-11T15:14:13.450Z,22.9
2018-12-11T15:15:03.274Z,27.4
2018-12-11T15:15:53.315Z,28.1
2018-12-11T15:16:44.178Z,28.3
2018-12-11T15:17:33.455Z,28.6
2018-12-11T15:18:24.071Z,29.7
2018-12-11T15:19:14.128Z,31.3
2018-12-11T15:20:03.925Z,32.5
2018-12-11T15:20:53.957Z,34
2018-12-11T15:21:44.600Z,35.2
2018-12-11T15:22:34.605Z,34.6
2018-12-11T15:23:23.950Z,34.3
2018-12-11T15:24:14.790Z,34.3
2018-12-11T15:25:04.574Z,34.5
2018-12-11T15:25:54.289Z,34.6
2018-12-11T15:26:44.920Z,35.1
2018-12-11T15:27:34.140Z,36.3
2018-12-11T15:28:24.870Z,37.4
2018-12-11T15:29:15.089Z,37.2
2018-12-11T15:30:04.390Z,36.9
2018-12-11T15:30:54.643Z,36.9
2018-12-11T15:31:45.094Z,36.9
2018-12-11T15:32:35.115Z,37.1
2018-12-11T15:33:25.708Z,37.2
2018-12-11T15:34:14.143Z,37.4
2018-12-11T15:35:04.870Z,37.5
2018-12-11T15:35:54.872Z,37.7
2018-12-11T15:36:44.858Z,37.9
2018-12-11T15:37:34.630Z,38.1
2018-12-11T15:38:25.211Z,38.3
2018-12-11T15:39:15.334Z,38.4
2018-12-11T15:40:05.415Z,38.6
2018-12-11T15:40:55.145Z,38.7
2018-12-11T15:41:45.257Z,38.9
2018-12-11T15:42:35.331Z,39
2018-12-11T15:43:24.807Z,39.3
2018-12-11T15:44:15.667Z,39.5
2018-12-11T15:45:06.509Z,39.8
2018-12-11T15:46:02.076Z,39.9
2018-12-11T15:46:46.327Z,40.2
2018-12-11T15:47:36.695Z,40.4
2018-12-11T15:48:26.413Z,40.5
2018-12-11T15:49:17.429Z,40.6
2018-12-11T15:50:06.124Z,40.8
2018-12-11T15:50:55.482Z,40.9
2018-12-11T15:51:46.099Z,40.9
2018-12-11T15:52:36.751Z,41.1
2018-12-11T15:53:27.023Z,41.1
2018-12-11T15:54:16.826Z,41.3
2018-12-11T15:55:06.625Z,41.3
2018-12-11T15:55:56.374Z,41.4
2018-12-11T15:56:46.223Z,41.4
2018-12-11T15:57:36.817Z,41.4
2018-12-11T15:58:32.677Z,41.4
2018-12-11T15:59:16.966Z,41.4
2018-12-11T16:00:06.739Z,41.4
2018-12-11T16:00:57.385Z,41.5
2018-12-11T16:01:46.587Z,41.6
2018-12-11T16:02:37.176Z,41.7
2018-12-11T16:03:27.468Z,41.7
2018-12-11T16:04:16.690Z,40.2
2018-12-11T16:05:06.778Z,39.1
2018-12-11T16:05:56.559Z,38.6
2018-12-11T16:06:47.415Z,38.3
2018-12-11T16:07:37.460Z,38.1
2018-12-11T16:08:27.815Z,38.6
2018-12-11T16:09:17.853Z,38.9
2018-12-11T16:10:07.490Z,39.7
2018-12-11T16:10:57.204Z,40.2
2018-12-11T16:11:47.195Z,39.4
2018-12-11T16:12:37.805Z,38.6
2018-12-11T16:13:27.940Z,38.3
2018-12-11T16:14:18.805Z,38
2018-12-11T16:15:08.112Z,37.9
2018-12-11T16:15:58.318Z,38.5
2018-12-11T16:16:47.822Z,38.9
2018-12-11T16:17:37.905Z,39.7
2018-12-11T16:18:27.957Z,40.2
2018-12-11T16:19:17.785Z,39.7
2018-12-11T16:20:08.452Z,38.7
2018-12-11T16:20:59.075Z,38.3
2018-12-11T16:21:48.176Z,38.1
2018-12-11T16:22:37.377Z,38
2018-12-11T16:23:28.592Z,38.3
2018-12-11T16:24:18.652Z,38.7
2018-12-11T16:25:08.430Z,39.4
2018-12-11T16:25:58.817Z,40.1
2018-12-11T16:26:49.087Z,40.5
2018-12-11T16:27:38.867Z,39.4
2018-12-11T16:28:30.437Z,38.7
2018-12-11T16:29:19.557Z,38.3
2018-12-11T16:30:07.957Z,38.2
2018-12-11T16:30:59.212Z,38.1
2018-12-11T16:31:48.913Z,38.6
2018-12-11T16:32:40.030Z,39
2018-12-11T16:33:29.559Z,39.6
2018-12-11T16:34:18.867Z,40.1
2018-12-11T16:35:09.519Z,40.4
2018-12-11T16:35:58.149Z,40.6
2018-12-11T16:36:48.983Z,40
2018-12-11T16:37:39.175Z,39.1
2018-12-11T16:38:29.909Z,38.8
2018-12-11T16:39:19.547Z,38.5
2018-12-11T16:40:11.592Z,38.9
2018-12-11T16:40:58.946Z,39.2
2018-12-11T16:41:50.192Z,39.7
2018-12-11T16:42:39.919Z,40.1
2018-12-11T16:43:29.424Z,40.4
2018-12-11T16:44:19.768Z,40.2
2018-12-11T16:45:10.939Z,39.2
2018-12-11T16:46:01.261Z,38.8
2018-12-11T16:46:50.209Z,38.5
2018-12-11T16:47:40.277Z,38.3
2018-12-11T16:48:29.481Z,38.1
2018-12-11T16:49:20.413Z,38.8
2018-12-11T16:50:09.898Z,39.2
2018-12-11T16:50:59.461Z,39.9
2018-12-11T16:51:51.241Z,40.4
2018-12-11T16:52:41.179Z,39.3
2018-12-11T16:53:30.676Z,38.7
2018-12-11T16:54:21.278Z,38.4
2018-12-11T16:55:11.143Z,38.3
2018-12-11T16:56:00.271Z,38.2
2018-12-11T16:56:51.143Z,38.1
2018-12-11T16:57:40.723Z,38.7
2018-12-11T16:58:31.306Z,38.9
2018-12-11T16:59:20.811Z,39.3
2018-12-11T17:00:11.148Z,39.5
2018-12-11T17:01:01.478Z,39.6
2018-12-11T17:01:51.841Z,39.7
2018-12-11T17:02:41.616Z,39.8
2018-12-11T17:03:31.355Z,39.8
2018-12-11T17:04:21.706Z,39.8
2018-12-11T17:05:11.484Z,39.8
2018-12-11T17:06:01.365Z,39.8
2018-12-11T17:06:51.673Z,39.8
2018-12-11T17:07:41.478Z,39.8
2018-12-11T17:08:30.680Z,39.8
2018-12-11T17:09:21.306Z,39.8
2018-12-11T17:10:11.374Z,39.8
2018-12-11T17:11:02.849Z,39.8
2018-12-11T17:11:52.295Z,39.8
2018-12-11T17:12:42.047Z,39.8
2018-12-11T17:13:32.138Z,39.8
2018-12-11T17:14:22.158Z,39.8
2018-12-11T17:15:11.922Z,39.7
2018-12-11T17:16:02.235Z,39.8
2018-12-11T17:16:52.916Z,39.8
2018-12-11T17:17:41.533Z,39.7
2018-12-11T17:18:32.695Z,39.7
2018-12-11T17:19:22.760Z,39.7
2018-12-11T17:20:12.835Z,39.7
2018-12-11T17:21:02.356Z,39.8
2018-12-11T17:21:55.355Z,39.7
2018-12-11T17:22:43.015Z,39.7
2018-12-11T17:23:32.518Z,39.8
2018-12-11T17:24:21.701Z,39.8
2018-12-11T17:25:12.930Z,39.8
2018-12-11T17:26:02.997Z,39.8
2018-12-11T17:26:54.760Z,39.8
2018-12-11T17:27:43.387Z,39.8
2018-12-11T17:28:33.995Z,39.8
2018-12-11T17:29:29.613Z,39.9
2018-12-11T17:30:12.960Z,40.3
2018-12-11T17:31:03.587Z,40.3
2018-12-11T17:31:53.656Z,39.4
2018-12-11T17:32:43.737Z,38.9
2018-12-11T17:33:33.247Z,38.6
2018-12-11T17:34:22.974Z,38.4
2018-12-11T17:35:13.947Z,38.2
2018-12-11T17:36:03.100Z,38.1
2018-12-11T17:36:53.445Z,37.9
2018-12-11T17:37:43.494Z,37.9
2018-12-11T17:38:34.092Z,38.4
2018-12-11T17:39:23.580Z,38.8
2018-12-11T17:40:13.918Z,39.4
2018-12-11T17:41:03.997Z,40.1
2018-12-11T17:41:54.657Z,40.5
2018-12-11T17:42:44.292Z,40.8
2018-12-11T17:43:34.514Z,40.7
2018-12-11T17:44:24.212Z,40.5
2018-12-11T17:45:14.564Z,40.4
2018-12-11T17:46:04.882Z,40.3
2018-12-11T17:46:54.437Z,40.2
2018-12-11T17:47:44.988Z,40.1
2018-12-11T17:48:41.398Z,40.1
2018-12-11T17:49:26.656Z,40.1
2018-12-11T17:50:14.624Z,40
2018-12-11T17:51:04.741Z,40
2018-12-11T17:51:54.228Z,40.1
2018-12-11T17:52:45.687Z,40.1
2018-12-11T17:53:34.353Z,40.1
2018-12-11T17:54:24.966Z,40.1
2018-12-11T17:55:14.754Z,40.3
2018-12-11T17:56:03.968Z,40.5
2018-12-11T17:56:54.319Z,40.7
2018-12-11T17:57:44.966Z,40.5
2018-12-11T17:58:34.803Z,39.6
2018-12-11T17:59:24.818Z,39
2018-12-11T18:00:14.601Z,38.8
2018-12-11T18:01:04.593Z,38.6
2018-12-11T18:01:54.403Z,38.4
2018-12-11T18:02:43.875Z,38.3
2018-12-11T18:03:36.456Z,38.7
2018-12-11T18:04:25.128Z,39.1
2018-12-11T18:05:15.938Z,39.8
2018-12-11T18:23:53.589Z,40.8
2018-12-11T18:24:43.045Z,41
2018-12-11T18:25:33.974Z,41.1
2018-12-11T18:26:22.912Z,41.2
2018-12-11T18:27:13.500Z,41.3
2018-12-11T18:28:03.605Z,41.3
2018-12-11T18:28:53.644Z,41.3
2018-12-11T18:29:44.237Z,41.3
2018-12-11T18:30:33.702Z,41.3
2018-12-11T18:31:23.266Z,41.3
2018-12-11T18:32:13.816Z,41.3
2018-12-11T18:33:04.460Z,41.3
2018-12-11T18:33:54.259Z,41.2
2018-12-11T18:34:44.252Z,41.3
2018-12-11T18:35:34.696Z,41.1
2018-12-11T18:36:24.636Z,40.8
2018-12-11T18:37:14.434Z,40.6
2018-12-11T18:38:04.501Z,40.4
2018-12-11T18:38:54.071Z,40.3
2018-12-11T18:39:45.151Z,40.3
2018-12-11T18:40:34.973Z,40.1
2018-12-11T18:41:25.148Z,40.1
2018-12-11T18:42:13.971Z,40.1
2018-12-11T18:43:04.525Z,40.1
2018-12-11T18:43:54.688Z,40.1
2018-12-11T18:44:44.955Z,40.1
2018-12-11T18:45:35.013Z,40.1
2018-12-11T18:46:25.371Z,40.1
2018-12-11T18:47:14.868Z,40.1
2018-12-11T18:48:04.656Z,40.1
2018-12-11T18:48:55.029Z,40.2
2018-12-11T18:49:45.385Z,40.2
2018-12-11T18:50:35.608Z,40.3
2018-12-11T18:51:25.448Z,40.6
2018-12-11T18:52:15.558Z,40.8
2018-12-11T18:53:05.005Z,40.5
2018-12-11T18:53:55.601Z,39.6
2018-12-11T18:54:45.964Z,39.1
2018-12-11T18:55:35.174Z,38.9
2018-12-11T18:56:25.502Z,38.7
2018-12-11T18:57:15.837Z,38.6
2018-12-11T18:58:05.681Z,38.4
2018-12-11T18:58:55.211Z,39
2018-12-11T18:59:45.742Z,39.3
2018-12-11T19:00:35.866Z,40.1
2018-12-11T19:01:26.142Z,39.9
2018-12-11T19:02:16.175Z,39.1
2018-12-11T19:03:06.289Z,38.6
2018-12-11T19:03:57.357Z,38.4
2018-12-11T19:04:44.972Z,38.3
2018-12-11T19:05:36.625Z,38.2
2018-12-11T19:06:26.195Z,38.1
2018-12-11T19:07:16.522Z,38.1
2018-12-11T19:08:06.328Z,38.1
2018-12-11T19:08:56.642Z,38
2018-12-11T19:09:46.992Z,38
2018-12-11T19:10:36.008Z,37.9
2018-12-11T19:11:26.004Z,37.9
2018-12-11T19:12:16.421Z,37.9
2018-12-11T19:13:05.621Z,37.9
2018-12-11T19:13:56.789Z,38.6
2018-12-11T19:14:46.632Z,39.2
2018-12-11T19:15:36.543Z,38.4
2018-12-11T19:16:26.924Z,37.9
2018-12-11T19:17:17.511Z,37.6
2018-12-11T19:18:07.024Z,37.6
2018-12-11T19:18:57.393Z,37.5
2018-12-11T19:19:46.571Z,37.4
2018-12-11T19:20:37.768Z,37.5
2018-12-11T19:21:27.249Z,37.4
2018-12-11T19:22:17.866Z,37.5
2018-12-11T19:23:07.076Z,37.5
2018-12-11T19:23:57.424Z,37.5
2018-12-11T19:24:47.799Z,37.6
2018-12-11T19:25:37.522Z,37.6
2018-12-11T19:26:29.123Z,37.7
2018-12-11T19:27:17.351Z,38.1
2018-12-11T19:28:07.950Z,38.6
2018-12-11T19:28:58.016Z,39.1
2018-12-11T19:29:47.845Z,39.8
2018-12-11T19:30:37.934Z,40.3
2018-12-11T19:31:28.070Z,40.7
2018-12-11T19:32:18.028Z,40.9
2018-12-11T19:33:08.341Z,41.1
2018-12-11T19:33:58.105Z,40.2
2018-12-11T19:34:47.870Z,39.5
2018-12-11T19:35:40.630Z,39.1
2018-12-11T19:36:28.019Z,39.1
2018-12-11T19:37:17.765Z,39.4
2018-12-11T19:38:08.417Z,39.8
2018-12-11T19:38:58.449Z,40.2
2018-12-11T19:39:48.214Z,40.5
2018-12-11T19:40:48.392Z,40.8
2018-12-11T19:41:28.892Z,41.1
2018-12-11T19:42:19.124Z,41.3
2018-12-11T19:43:14.998Z,41.3
2018-12-11T19:43:59.054Z,41.4
2018-12-11T19:44:49.167Z,41.4
2018-12-11T19:45:39.520Z,41.1
2018-12-11T19:46:29.626Z,40
2018-12-11T19:47:19.077Z,39.4
2018-12-11T19:48:08.872Z,39.1
2018-12-11T19:48:59.191Z,39.2
2018-12-11T19:49:49.599Z,39.6
2018-12-11T19:50:39.489Z,39.8
2018-12-11T19:51:29.269Z,40.3
2018-12-11T19:52:18.861Z,40.5
2018-12-11T19:53:09.143Z,40.8
2018-12-11T19:53:59.179Z,40.6
2018-12-11T19:54:49.553Z,39.8
2018-12-11T19:55:40.201Z,39.2
2018-12-11T19:56:30.481Z,38.9
2018-12-11T19:57:20.040Z,38.8
2018-12-11T19:58:08.667Z,38.6
2018-12-11T19:58:59.580Z,38.7
2018-12-11T19:59:49.882Z,39.3
2018-12-11T20:00:40.185Z,39.6
2018-12-11T20:01:29.988Z,40.1
2018-12-11T20:02:20.082Z,40.6
2018-12-11T20:03:16.072Z,40.8
2018-12-11T20:04:00.427Z,40.9
2018-12-11T20:04:50.493Z,41.1
2018-12-11T20:05:39.997Z,41.1
2018-12-11T20:06:29.030Z,41.1
2018-12-11T20:07:20.114Z,41.2
2018-12-11T20:08:10.154Z,41.1
2018-12-11T20:09:00.255Z,41.3
2018-12-11T20:09:50.300Z,41.2
2018-12-11T20:10:40.649Z,41.3
2018-12-11T20:11:30.454Z,41.4
2018-12-11T20:12:20.825Z,41.1
2018-12-11T20:13:10.896Z,40.9
2018-12-11T20:14:01.446Z,40.8
2018-12-11T20:14:50.096Z,40.7
2018-12-11T20:15:41.609Z,40.6
2018-12-11T20:16:31.111Z,40.6
2018-12-11T20:17:21.366Z,40.5
2018-12-11T20:18:17.669Z,40.4
2018-12-11T20:19:02.253Z,40.4
2018-12-11T20:19:51.259Z,40.4
2018-12-11T20:20:41.111Z,40.4
2018-12-11T20:21:30.868Z,40.4
2018-12-11T20:22:21.153Z,40.4
2018-12-11T20:23:11.786Z,40.4
2018-12-11T20:24:08.028Z,40.3
2018-12-11T20:24:51.626Z,39.4
2018-12-11T20:25:41.928Z,39.1
2018-12-11T20:26:31.737Z,38.8
2018-12-11T20:27:20.673Z,38.7
2018-12-11T20:28:11.283Z,38.6
2018-12-11T20:29:01.365Z,38.6
2018-12-11T20:29:52.495Z,38.5
2018-12-11T20:30:42.294Z,38.9
2018-12-11T20:31:31.915Z,39.3
2018-12-11T20:32:21.635Z,39.9
2018-12-11T20:33:11.637Z,40.5
2018-12-11T20:34:02.021Z,40.6
2018-12-11T20:34:51.102Z,39.6
2018-12-11T20:35:41.345Z,39.2
2018-12-11T20:36:31.365Z,39
2018-12-11T20:37:21.952Z,39.5
2018-12-11T20:38:11.227Z,39.7
2018-12-11T20:39:01.627Z,40.1
2018-12-11T20:39:52.694Z,40.4
2018-12-11T20:40:43.019Z,40.6
2018-12-11T20:41:33.014Z,39.7
2018-12-11T20:42:22.499Z,39.2
2018-12-11T20:43:13.129Z,38.9
2018-12-11T20:44:02.346Z,38.8
2018-12-11T20:44:52.461Z,38.6
2018-12-11T20:45:43.054Z,38.5
2018-12-11T20:46:34.001Z,38.5
2018-12-11T20:47:23.691Z,39
2018-12-11T20:48:12.993Z,39.4
2018-12-11T20:49:04.734Z,40
2018-12-11T20:49:53.401Z,40
2018-12-11T20:50:43.681Z,39.1
2018-12-11T20:51:32.906Z,38.6
2018-12-11T20:52:22.738Z,38.4
2018-12-11T20:53:13.393Z,38.3
2018-12-11T20:54:03.469Z,38.1
2018-12-11T20:54:53.728Z,38.1
2018-12-11T20:55:44.280Z,38.1
2018-12-11T20:56:34.106Z,38.1
2018-12-11T20:57:24.000Z,38.1
2018-12-11T20:58:13.892Z,38.1
2018-12-11T20:59:03.756Z,38
2018-12-11T20:59:53.787Z,37.9
2018-12-11T21:00:44.057Z,37.9
2018-12-11T21:01:33.893Z,37.8
2018-12-11T21:02:24.775Z,37.7
2018-12-11T21:03:14.620Z,37.6
2018-12-11T21:04:04.605Z,37.5
2018-12-11T21:04:54.145Z,37.4